Time;durP1;ratioP1;P1;durP2;ratioP2;P2;SDS_P1;SDS_P2;PMS_P1;PMS_P2;Temp;Humidity;BMP_temperature;BMP_pressure;BME280_temperature;BME280_humidity;BME280_pressure;Samples;Min_cycle;Max_cycle;Signal;HPM_P1;HPM_P2
2022/04/06 00:00:25;;;;;;;16.73;11.23;;;;;;;;;;5043185;28;20467;-86
2022/04/06 00:02:51;;;;;;;15.50;10.88;;;;;;;;;;5040263;28;20037;-85
2022/04/06 00:05:17;;;;;;;18.02;11.27;;;;;;;;;;5037200;28;20029;-85
2022/04/06 00:07:43;;;;;;;16.73;11.60;;;;;;;;;;5035711;28;20030;-86
2022/04/06 00:10:10;;;;;;;18.23;11.45;;;;;;;;;;5039400;28;20108;-88
2022/04/06 00:12:37;;;;;;;15.80;11.10;;;;;;;;;;5040877;28;20033;-88
2022/04/06 00:15:07;;;;;;;16.75;11.40;;;;;;;;;;5054380;28;20044;-86
2022/04/06 00:17:33;;;;;;;15.68;11.90;;;;;;;;;;5046799;28;20055;-86
2022/04/06 00:19:59;;;;;;;16.85;11.65;;;;;;;;;;5039952;28;20025;-85
2022/04/06 00:22:25;;;;;;;19.20;12.27;;;;;;;;;;5038438;28;20028;-84
2022/04/06 00:24:51;;;;;;;20.92;14.27;;;;;;;;;;5045357;28;20577;-85
2022/04/06 00:27:17;;;;;;;21.20;14.25;;;;;;;;;;5049721;28;20032;-85
2022/04/06 00:29:43;;;;;;;19.95;14.02;;;;;;;;;;5047703;28;20445;-85
2022/04/06 00:32:09;;;;;;;18.77;13.82;;;;;;;;;;5046272;28;20070;-85
2022/04/06 00:37:19;;;;;;;17.88;12.68;;;;;;;;;;5047617;28;20040;-85
2022/04/06 00:39:45;;;;;;;19.25;11.57;;;;;;;;;;5046934;28;20017;-86
2022/04/06 00:42:11;;;;;;;15.98;10.70;;;;;;;;;;5041637;28;20478;-85
2022/04/06 00:44:37;;;;;;;14.18;10.15;;;;;;;;;;5036984;28;20044;-85
2022/04/06 00:47:04;;;;;;;14.73;9.95;;;;;;;;;;5045351;28;20029;-85
2022/04/06 00:49:30;;;;;;;12.75;9.80;;;;;;;;;;5050317;28;20047;-86
2022/04/06 00:51:56;;;;;;;16.85;10.50;;;;;;;;;;5042027;28;20068;-85
2022/04/06 00:54:23;;;;;;;14.68;10.68;;;;;;;;;;5047574;28;20099;-85
2022/04/06 00:56:49;;;;;;;15.32;10.35;;;;;;;;;;5045877;28;20036;-86
2022/04/06 00:59:16;;;;;;;15.63;10.80;;;;;;;;;;5048861;28;20025;-87
2022/04/06 01:01:44;;;;;;;19.85;13.13;;;;;;;;;;5047018;28;20016;-86
2022/04/06 01:04:09;;;;;;;18.80;12.07;;;;;;;;;;5050315;28;20498;-86
2022/04/06 01:06:35;;;;;;;17.20;11.93;;;;;;;;;;5032121;28;20099;-86
2022/04/06 01:09:02;;;;;;;16.02;11.27;;;;;;;;;;5046093;28;20031;-87
2022/04/06 01:11:28;;;;;;;17.00;11.15;;;;;;;;;;5048512;28;20464;-85
2022/04/06 01:13:55;;;;;;;14.68;11.10;;;;;;;;;;5044173;28;20017;-87
2022/04/06 01:16:21;;;;;;;16.73;11.15;;;;;;;;;;5042689;28;20027;-84
2022/04/06 01:18:47;;;;;;;16.08;11.15;;;;;;;;;;5037638;28;20103;-85
2022/04/06 01:21:13;;;;;;;15.75;11.02;;;;;;;;;;5033799;28;20018;-85
2022/04/06 01:23:42;;;;;;;16.92;12.15;;;;;;;;;;5051738;28;20046;-85
2022/04/06 01:26:09;;;;;;;15.40;11.05;;;;;;;;;;5042566;28;20040;-85
2022/04/06 01:28:35;;;;;;;15.82;11.35;;;;;;;;;;5043603;28;20025;-85
2022/04/06 01:31:01;;;;;;;17.17;11.20;;;;;;;;;;5048336;28;20111;-85
2022/04/06 01:33:27;;;;;;;18.25;12.25;;;;;;;;;;5045201;28;20112;-84
2022/04/06 01:35:53;;;;;;;18.10;11.90;;;;;;;;;;5043139;28;20468;-86
2022/04/06 01:38:19;;;;;;;17.75;12.15;;;;;;;;;;5050475;28;20025;-84
2022/04/06 01:40:45;;;;;;;17.67;11.73;;;;;;;;;;5045773;28;20021;-86
2022/04/06 01:43:11;;;;;;;17.92;12.07;;;;;;;;;;5044582;28;20420;-87
2022/04/06 01:45:37;;;;;;;19.10;12.18;;;;;;;;;;5050761;28;20079;-86
2022/04/06 01:48:03;;;;;;;18.23;12.55;;;;;;;;;;5041066;28;20492;-86
2022/04/06 01:53:13;;;;;;;18.60;12.75;;;;;;;;;;5055853;28;20080;-85
2022/04/06 01:55:39;;;;;;;18.67;13.27;;;;;;;;;;5035289;28;20029;-85
2022/04/06 01:58:05;;;;;;;17.38;12.60;;;;;;;;;;5046691;28;20754;-86
2022/04/06 02:00:31;;;;;;;18.65;13.35;;;;;;;;;;5040869;28;20981;-86
2022/04/06 02:02:57;;;;;;;20.02;13.57;;;;;;;;;;5039305;28;20025;-87
2022/04/06 02:05:23;;;;;;;18.33;13.40;;;;;;;;;;5049024;28;20463;-87
2022/04/06 02:07:50;;;;;;;20.88;13.15;;;;;;;;;;5045952;28;20036;-85
2022/04/06 02:10:16;;;;;;;17.55;12.82;;;;;;;;;;5042417;28;20491;-84
2022/04/06 02:12:42;;;;;;;20.27;13.15;;;;;;;;;;5044146;28;20384;-85
2022/04/06 02:15:12;;;;;;;19.73;13.80;;;;;;;;;;5044347;28;20024;-85
2022/04/06 02:17:38;;;;;;;19.38;13.60;;;;;;;;;;5034477;28;20026;-86
2022/04/06 02:20:04;;;;;;;17.42;12.40;;;;;;;;;;5046482;28;20120;-84
2022/04/06 02:22:30;;;;;;;19.42;13.73;;;;;;;;;;5050934;28;20031;-86
2022/04/06 02:24:56;;;;;;;20.30;13.48;;;;;;;;;;5043781;28;20498;-86
2022/04/06 02:27:22;;;;;;;18.02;13.40;;;;;;;;;;5039495;28;20029;-86
2022/04/06 02:29:48;;;;;;;19.10;13.52;;;;;;;;;;5043086;28;20029;-86
2022/04/06 02:32:14;;;;;;;20.58;13.82;;;;;;;;;;5044041;28;20040;-86
2022/04/06 02:34:41;;;;;;;20.27;13.70;;;;;;;;;;5041288;28;20025;-88
2022/04/06 02:37:08;;;;;;;18.63;13.50;;;;;;;;;;5041107;28;20033;-89
2022/04/06 02:39:34;;;;;;;18.30;12.88;;;;;;;;;;5036564;28;20028;-89
2022/04/06 02:42:00;;;;;;;18.98;12.98;;;;;;;;;;5038434;28;20029;-88
2022/04/06 02:44:26;;;;;;;18.27;12.75;;;;;;;;;;5036408;28;20025;-87
2022/04/06 02:46:52;;;;;;;18.05;12.25;;;;;;;;;;5044834;28;20021;-89
2022/04/06 02:49:18;;;;;;;19.92;12.70;;;;;;;;;;5040636;28;20116;-87
2022/04/06 02:51:44;;;;;;;19.95;12.88;;;;;;;;;;5034733;28;20028;-86
2022/04/06 02:54:10;;;;;;;18.60;12.60;;;;;;;;;;5037030;28;20124;-87
2022/04/06 02:56:36;;;;;;;17.45;12.60;;;;;;;;;;5045916;28;20021;-87
2022/04/06 02:59:02;;;;;;;19.33;12.98;;;;;;;;;;5040370;28;20361;-87
2022/04/06 03:01:29;;;;;;;17.98;12.38;;;;;;;;;;5039874;28;20041;-88
2022/04/06 03:03:55;;;;;;;16.23;12.23;;;;;;;;;;5040276;28;20055;-87
2022/04/06 03:06:21;;;;;;;16.83;12.13;;;;;;;;;;5039341;28;20060;-88
2022/04/06 03:08:57;;;;;;;16.75;12.05;;;;;;;;;;5063676;27;20387;-86
2022/04/06 03:11:23;;;;;;;16.10;11.75;;;;;;;;;;5034845;28;20377;-74
2022/04/06 03:13:50;;;;;;;18.95;12.57;;;;;;;;;;5040228;28;20479;-75
2022/04/06 03:16:16;;;;;;;20.05;13.45;;;;;;;;;;5037334;28;20536;-73
2022/04/06 03:18:42;;;;;;;17.20;12.32;;;;;;;;;;5040543;28;20049;-76
2022/04/06 03:21:08;;;;;;;19.30;11.93;;;;;;;;;;5038627;28;20025;-76
2022/04/06 03:23:34;;;;;;;15.98;12.10;;;;;;;;;;5034747;28;20021;-76
2022/04/06 03:26:00;;;;;;;15.65;12.05;;;;;;;;;;5036638;28;20080;-76
2022/04/06 03:28:26;;;;;;;17.73;11.68;;;;;;;;;;5044798;28;20102;-75
2022/04/06 03:30:52;;;;;;;17.73;12.18;;;;;;;;;;5045467;28;20021;-76
2022/04/06 03:33:17;;;;;;;17.02;12.00;;;;;;;;;;5036744;28;20099;-76
2022/04/06 03:35:43;;;;;;;20.58;12.18;;;;;;;;;;5039106;28;20048;-76
2022/04/06 03:38:09;;;;;;;17.05;12.07;;;;;;;;;;5037041;28;20518;-76
2022/04/06 03:40:35;;;;;;;18.35;11.70;;;;;;;;;;5040608;28;20037;-76
2022/04/06 03:43:01;;;;;;;15.02;11.13;;;;;;;;;;5046932;28;20804;-76
2022/04/06 03:45:27;;;;;;;17.08;12.02;;;;;;;;;;5037262;28;20040;-76
2022/04/06 03:47:53;;;;;;;17.30;10.68;;;;;;;;;;5050053;28;20033;-76
2022/04/06 03:50:19;;;;;;;17.70;10.82;;;;;;;;;;5036724;28;20759;-76
2022/04/06 03:52:45;;;;;;;18.15;10.93;;;;;;;;;;5037511;28;20108;-76
2022/04/06 03:55:11;;;;;;;17.73;10.57;;;;;;;;;;5040810;28;20044;-76
2022/04/06 03:57:37;;;;;;;16.70;10.40;;;;;;;;;;5035950;28;20086;-76
2022/04/06 04:00:04;;;;;;;16.20;10.38;;;;;;;;;;5039950;28;20248;-76
2022/04/06 04:02:31;;;;;;;16.70;10.82;;;;;;;;;;5036866;28;20106;-76
2022/04/06 04:04:57;;;;;;;21.42;10.65;;;;;;;;;;5037382;28;20493;-76
2022/04/06 04:07:23;;;;;;;15.57;9.82;;;;;;;;;;5017057;28;20052;-76
2022/04/06 04:09:50;;;;;;;15.00;10.68;;;;;;;;;;5016657;28;20033;-76
2022/04/06 04:12:16;;;;;;;16.88;10.73;;;;;;;;;;5020209;28;20061;-76
2022/04/06 04:14:43;;;;;;;15.90;9.98;;;;;;;;;;5014781;28;20168;-76
2022/04/06 04:17:09;;;;;;;13.45;9.65;;;;;;;;;;5021073;28;20536;-76
2022/04/06 04:19:35;;;;;;;15.32;9.82;;;;;;;;;;5008876;28;20085;-76
2022/04/06 04:22:01;;;;;;;14.75;9.60;;;;;;;;;;5006534;28;20058;-76
2022/04/06 04:24:27;;;;;;;14.57;9.15;;;;;;;;;;5005381;28;20117;-76
2022/04/06 04:26:53;;;;;;;14.65;8.70;;;;;;;;;;5004951;28;20576;-76
2022/04/06 04:29:19;;;;;;;17.90;9.98;;;;;;;;;;5003570;28;20067;-75
2022/04/06 04:31:46;;;;;;;16.45;9.35;;;;;;;;;;5005519;28;20113;-76
2022/04/06 04:34:12;;;;;;;16.90;9.40;;;;;;;;;;5006384;28;20029;-76
2022/04/06 04:36:38;;;;;;;17.83;9.57;;;;;;;;;;5008158;28;20014;-76
2022/04/06 04:39:07;;;;;;;21.25;9.45;;;;;;;;;;5005569;28;20029;-76
2022/04/06 04:41:33;;;;;;;14.15;9.52;;;;;;;;;;5007498;28;20021;-76
2022/04/06 04:43:59;;;;;;;17.52;9.30;;;;;;;;;;5005787;28;20037;-76
2022/04/06 04:46:25;;;;;;;16.77;9.60;;;;;;;;;;5008766;28;20030;-76
2022/04/06 04:48:51;;;;;;;16.20;9.13;;;;;;;;;;5003468;28;20041;-76
2022/04/06 04:51:17;;;;;;;17.23;9.70;;;;;;;;;;5004216;28;20633;-76
2022/04/06 04:53:43;;;;;;;16.83;9.77;;;;;;;;;;5002096;28;20123;-77
2022/04/06 04:56:09;;;;;;;15.07;10.23;;;;;;;;;;5008770;28;20062;-77
2022/04/06 04:58:35;;;;;;;15.65;10.25;;;;;;;;;;5004631;28;20030;-76
2022/04/06 05:01:02;;;;;;;16.42;10.15;;;;;;;;;;5005705;28;20044;-76
2022/04/06 05:03:28;;;;;;;20.38;10.25;;;;;;;;;;5005482;28;20026;-77
2022/04/06 05:05:56;;;;;;;16.92;10.52;;;;;;;;;;5008884;28;20021;-77
2022/04/06 05:08:22;;;;;;;17.52;10.70;;;;;;;;;;5008230;28;20428;-76
2022/04/06 05:10:51;;;;;;;16.55;10.93;;;;;;;;;;5009700;28;20050;-77
2022/04/06 05:13:20;;;;;;;15.80;11.50;;;;;;;;;;5004151;28;20475;-76
2022/04/06 05:15:47;;;;;;;20.67;11.25;;;;;;;;;;5004861;28;20030;-76
2022/04/06 05:18:12;;;;;;;17.45;10.80;;;;;;;;;;5007173;28;20033;-76
2022/04/06 05:20:39;;;;;;;21.05;11.90;;;;;;;;;;5005958;28;20029;-72
2022/04/06 05:23:05;;;;;;;15.63;10.32;;;;;;;;;;5006512;28;20034;-72
2022/04/06 05:25:31;;;;;;;19.55;10.88;;;;;;;;;;5008945;28;20060;-71
2022/04/06 05:27:57;;;;;;;16.52;10.02;;;;;;;;;;5004427;28;20127;-72
2022/04/06 05:30:24;;;;;;;20.88;11.00;;;;;;;;;;5007236;28;20022;-72
2022/04/06 05:32:51;;;;;;;17.20;10.73;;;;;;;;;;5005263;28;20025;-71
2022/04/06 05:35:18;;;;;;;14.05;10.00;;;;;;;;;;5008434;28;20010;-72
2022/04/06 05:37:44;;;;;;;16.98;10.65;;;;;;;;;;5003911;28;20040;-74
2022/04/06 05:40:11;;;;;;;20.85;11.20;;;;;;;;;;5007434;28;20022;-74
2022/04/06 05:42:37;;;;;;;18.27;10.77;;;;;;;;;;5006180;28;20029;-72
2022/04/06 05:45:03;;;;;;;16.65;9.95;;;;;;;;;;5001308;28;20477;-72
2022/04/06 05:47:29;;;;;;;14.30;9.85;;;;;;;;;;5008906;28;20745;-72
2022/04/06 05:49:56;;;;;;;14.43;10.10;;;;;;;;;;5006706;28;20116;-72
2022/04/06 05:52:22;;;;;;;20.58;10.88;;;;;;;;;;5006352;28;20140;-72
2022/04/06 05:54:48;;;;;;;17.63;10.45;;;;;;;;;;5008028;28;20025;-74
2022/04/06 05:57:13;;;;;;;16.63;10.90;;;;;;;;;;5002807;28;20029;-72
2022/04/06 05:59:40;;;;;;;15.40;10.63;;;;;;;;;;5013396;28;20028;-74
2022/04/06 06:02:07;;;;;;;19.08;10.40;;;;;;;;;;5009026;28;20022;-72
2022/04/06 06:04:33;;;;;;;16.17;9.75;;;;;;;;;;5007171;28;20095;-71
2022/04/06 06:06:59;;;;;;;16.48;10.32;;;;;;;;;;5004074;28;20049;-72
2022/04/06 06:09:25;;;;;;;15.52;10.52;;;;;;;;;;5004052;28;20168;-72
2022/04/06 06:11:51;;;;;;;17.60;10.55;;;;;;;;;;5005848;28;20033;-72
2022/04/06 06:14:17;;;;;;;16.10;10.27;;;;;;;;;;5003077;28;20020;-72
2022/04/06 06:16:45;;;;;;;21.50;10.68;;;;;;;;;;5007553;28;20022;-72
2022/04/06 06:19:11;;;;;;;21.88;11.23;;;;;;;;;;4998690;28;20037;-72
2022/04/06 06:21:37;;;;;;;19.30;11.23;;;;;;;;;;5008428;28;20030;-73
2022/04/06 06:24:05;;;;;;;23.02;11.00;;;;;;;;;;5005842;28;20376;-72
2022/04/06 06:26:32;;;;;;;20.95;11.32;;;;;;;;;;5005209;28;20049;-72
2022/04/06 06:28:58;;;;;;;26.10;12.23;;;;;;;;;;5002738;28;20045;-72
2022/04/06 06:31:24;;;;;;;20.27;12.38;;;;;;;;;;5004257;28;20034;-73
2022/04/06 06:33:50;;;;;;;26.05;13.15;;;;;;;;;;5002316;28;20040;-73
2022/04/06 06:36:16;;;;;;;19.55;13.02;;;;;;;;;;5007533;28;20420;-73
2022/04/06 06:38:42;;;;;;;27.60;13.80;;;;;;;;;;5002580;28;20022;-73
2022/04/06 06:41:07;;;;;;;24.73;13.85;;;;;;;;;;5001614;28;20037;-72
2022/04/06 06:43:33;;;;;;;26.13;15.13;;;;;;;;;;5002406;28;20026;-73
2022/04/06 06:45:59;;;;;;;25.90;14.07;;;;;;;;;;5004638;28;20032;-73
2022/04/06 06:48:25;;;;;;;26.58;14.75;;;;;;;;;;5006316;28;20022;-73
2022/04/06 06:50:51;;;;;;;25.65;15.55;;;;;;;;;;5002591;28;20418;-84
2022/04/06 06:53:17;;;;;;;26.20;15.75;;;;;;;;;;5005287;28;20158;-83
2022/04/06 06:55:43;;;;;;;26.88;14.77;;;;;;;;;;5001616;28;20050;-83
2022/04/06 06:58:09;;;;;;;29.02;15.27;;;;;;;;;;5005607;28;20057;-80
2022/04/06 07:00:35;;;;;;;31.55;16.10;;;;;;;;;;5004069;28;20057;-79
2022/04/06 07:03:01;;;;;;;29.00;15.48;;;;;;;;;;5007464;28;20505;-78
2022/04/06 07:05:28;;;;;;;24.73;14.88;;;;;;;;;;5013923;28;20037;-77
2022/04/06 07:07:58;;;;;;;30.45;15.20;;;;;;;;;;4995370;28;20042;-77
2022/04/06 07:10:25;;;;;;;28.15;15.75;;;;;;;;;;5004097;28;20109;-74
2022/04/06 07:12:51;;;;;;;31.08;14.80;;;;;;;;;;4996926;28;20029;-75
2022/04/06 07:15:17;;;;;;;26.50;15.13;;;;;;;;;;5004882;28;20507;-75
2022/04/06 07:17:43;;;;;;;27.67;16.85;;;;;;;;;;5018243;28;20484;-76
2022/04/06 07:20:10;;;;;;;30.30;15.98;;;;;;;;;;5003343;28;20053;-74
2022/04/06 07:22:36;;;;;;;28.85;15.82;;;;;;;;;;5000934;28;20041;-73
2022/04/06 07:25:02;;;;;;;29.95;15.68;;;;;;;;;;5006054;28;20026;-74
2022/04/06 07:27:34;;;;;;;28.02;15.50;;;;;;;;;;5004308;28;20456;-74
2022/04/06 07:30:00;;;;;;;25.27;15.15;;;;;;;;;;5001608;28;20028;-74
2022/04/06 07:32:26;;;;;;;24.95;15.50;;;;;;;;;;5009913;28;20108;-76
2022/04/06 07:34:51;;;;;;;27.80;15.25;;;;;;;;;;5008490;28;20026;-73
2022/04/06 07:37:17;;;;;;;32.38;15.63;;;;;;;;;;5005297;28;20029;-76
2022/04/06 07:39:43;;;;;;;25.17;15.40;;;;;;;;;;5003844;28;20030;-75
2022/04/06 07:42:09;;;;;;;29.08;15.10;;;;;;;;;;5004640;28;20058;-77
2022/04/06 07:44:35;;;;;;;27.35;14.50;;;;;;;;;;5003866;28;20041;-78
2022/04/06 07:47:01;;;;;;;25.85;14.07;;;;;;;;;;4997962;28;20046;-75
2022/04/06 07:49:27;;;;;;;26.38;14.00;;;;;;;;;;5005516;28;20032;-77
2022/04/06 07:51:53;;;;;;;21.75;13.32;;;;;;;;;;5015955;28;20421;-77
2022/04/06 07:54:19;;;;;;;22.23;13.48;;;;;;;;;;5012770;28;20026;-76
2022/04/06 07:56:45;;;;;;;27.45;13.70;;;;;;;;;;5012885;28;20053;-74
2022/04/06 07:59:11;;;;;;;30.25;12.90;;;;;;;;;;5018339;28;20025;-76
2022/04/06 08:01:37;;;;;;;19.48;12.80;;;;;;;;;;5014048;28;20029;-76
2022/04/06 08:04:02;;;;;;;24.38;13.30;;;;;;;;;;5006335;28;20694;-76
2022/04/06 08:06:29;;;;;;;23.48;12.73;;;;;;;;;;5009498;28;20029;-77
2022/04/06 08:08:55;;;;;;;25.58;12.35;;;;;;;;;;5009479;28;20388;-77
2022/04/06 08:11:21;;;;;;;21.73;11.65;;;;;;;;;;5006506;28;20037;-76
2022/04/06 08:13:47;;;;;;;19.85;11.93;;;;;;;;;;5008310;28;20050;-75
2022/04/06 08:16:13;;;;;;;20.10;11.25;;;;;;;;;;5009288;28;20049;-75
2022/04/06 08:18:39;;;;;;;20.92;11.55;;;;;;;;;;5005791;28;20034;-74
2022/04/06 08:21:05;;;;;;;18.50;11.15;;;;;;;;;;5005423;28;20440;-75
2022/04/06 08:23:31;;;;;;;21.55;11.68;;;;;;;;;;5026082;28;20036;-76
2022/04/06 08:25:57;;;;;;;22.13;10.60;;;;;;;;;;5008851;28;20030;-76
2022/04/06 08:28:23;;;;;;;17.25;9.90;;;;;;;;;;5011421;28;20159;-77
2022/04/06 08:30:49;;;;;;;19.75;10.18;;;;;;;;;;5012099;28;20101;-76
2022/04/06 08:33:15;;;;;;;20.73;10.30;;;;;;;;;;5004492;28;20034;-76
2022/04/06 08:35:42;;;;;;;21.45;10.57;;;;;;;;;;5013537;28;20026;-78
2022/04/06 08:38:10;;;;;;;18.27;9.65;;;;;;;;;;5005630;28;20033;-73
2022/04/06 08:40:37;;;;;;;18.42;9.35;;;;;;;;;;5004768;28;20400;-74
2022/04/06 08:43:04;;;;;;;17.85;8.75;;;;;;;;;;4996953;28;20473;-76
2022/04/06 08:45:32;;;;;;;19.35;8.90;;;;;;;;;;5007403;28;20067;-76
2022/04/06 08:47:59;;;;;;;23.50;9.13;;;;;;;;;;5006913;28;20069;-76
2022/04/06 08:50:28;;;;;;;16.98;8.82;;;;;;;;;;5008799;28;20029;-76
2022/04/06 08:52:54;;;;;;;15.48;8.65;;;;;;;;;;5006156;28;20079;-75
2022/04/06 08:55:21;;;;;;;15.45;8.32;;;;;;;;;;5008641;28;20030;-77
2022/04/06 08:57:46;;;;;;;18.83;8.70;;;;;;;;;;5011189;28;20037;-76
2022/04/06 09:00:15;;;;;;;13.95;8.43;;;;;;;;;;5008968;28;20029;-76
2022/04/06 09:02:41;;;;;;;16.85;8.23;;;;;;;;;;5010354;28;20038;-76
2022/04/06 09:05:09;;;;;;;12.75;7.95;;;;;;;;;;5006828;28;20026;-80
2022/04/06 09:07:36;;;;;;;15.23;7.95;;;;;;;;;;5008688;28;20050;-75
2022/04/06 09:10:01;;;;;;;9.88;6.30;;;;;;;;;;5009231;28;20041;-76
2022/04/06 09:12:28;;;;;;;17.85;7.05;;;;;;;;;;5010534;28;20018;-75
2022/04/06 09:15:05;;;;;;;17.52;7.30;;;;;;;;;;5008727;28;20060;-77
2022/04/06 09:17:31;;;;;;;11.82;6.90;;;;;;;;;;5009139;28;20096;-76
2022/04/06 09:19:59;;;;;;;16.27;6.95;;;;;;;;;;5007868;28;20030;-78
2022/04/06 09:22:25;;;;;;;16.50;7.15;;;;;;;;;;5006846;28;20038;-76
2022/04/06 09:24:56;;;;;;;19.15;7.43;;;;;;;;;;5005891;28;20105;-76
2022/04/06 09:27:22;;;;;;;16.40;7.60;;;;;;;;;;5003093;28;20497;-76
2022/04/06 09:29:50;;;;;;;11.45;6.95;;;;;;;;;;5005994;28;20049;-76
2022/04/06 09:32:16;;;;;;;12.80;7.47;;;;;;;;;;5004803;28;20034;-76
2022/04/06 09:34:42;;;;;;;15.93;7.45;;;;;;;;;;5004334;28;20045;-77
2022/04/06 09:37:41;;;;;;;13.90;6.45;;;;;;;;;;5006138;28;20143;-76
2022/04/06 09:40:08;;;;;;;12.63;7.40;;;;;;;;;;4981338;28;20033;-77
2022/04/06 09:42:34;;;;;;;13.90;7.47;;;;;;;;;;5003972;28;20038;-77
2022/04/06 09:47:53;;;;;;;13.95;7.13;;;;;;;;;;5006129;28;20104;-76
2022/04/06 09:50:20;;;;;;;14.23;7.75;;;;;;;;;;5006447;28;20113;-75
2022/04/06 09:52:47;;;;;;;16.77;7.43;;;;;;;;;;5004702;28;20033;-75
2022/04/06 09:55:16;;;;;;;12.73;7.38;;;;;;;;;;5006314;28;20666;-76
2022/04/06 09:57:42;;;;;;;16.02;7.40;;;;;;;;;;5007111;28;20088;-76
2022/04/06 10:00:09;;;;;;;16.52;7.63;;;;;;;;;;5008830;28;20022;-74
2022/04/06 10:02:36;;;;;;;12.23;6.95;;;;;;;;;;5007650;28;20033;-74
2022/04/06 10:05:02;;;;;;;12.77;7.18;;;;;;;;;;5005329;28;20467;-74
2022/04/06 10:07:28;;;;;;;14.23;7.45;;;;;;;;;;5006302;28;20029;-74
2022/04/06 10:09:55;;;;;;;14.95;7.45;;;;;;;;;;5006317;28;20496;-73
2022/04/06 10:12:22;;;;;;;18.08;7.82;;;;;;;;;;5006170;28;20029;-75
2022/04/06 10:14:48;;;;;;;17.85;7.40;;;;;;;;;;5007691;28;20083;-74
2022/04/06 10:17:14;;;;;;;11.57;6.68;;;;;;;;;;5008165;28;20112;-74
2022/04/06 10:19:46;;;;;;;14.30;7.00;;;;;;;;;;5008681;28;20094;-74
2022/04/06 10:22:16;;;;;;;11.55;6.88;;;;;;;;;;5006083;28;20080;-74
2022/04/06 10:24:54;;;;;;;12.10;7.53;;;;;;;;;;5007772;28;20469;-74
2022/04/06 10:27:28;;;;;;;14.52;7.28;;;;;;;;;;5006218;28;20036;-74
2022/04/06 10:30:06;;;;;;;17.30;8.32;;;;;;;;;;5015985;28;20030;-74
2022/04/06 10:32:36;;;;;;;17.10;7.85;;;;;;;;;;5014176;28;20040;-74
2022/04/06 10:35:21;;;;;;;14.43;7.50;;;;;;;;;;5011146;28;20127;-74
2022/04/06 10:38:13;;;;;;;17.42;8.05;;;;;;;;;;5008969;28;20026;-75
2022/04/06 10:40:45;;;;;;;14.23;8.00;;;;;;;;;;5012213;28;20176;-74
2022/04/06 10:43:30;;;;;;;13.15;7.47;;;;;;;;;;5001448;28;20026;-75
2022/04/06 10:45:57;;;;;;;10.40;7.13;;;;;;;;;;5008013;28;20512;-74
2022/04/06 10:48:23;;;;;;;12.95;7.13;;;;;;;;;;5000519;28;20034;-74
2022/04/06 10:50:50;;;;;;;11.90;6.47;;;;;;;;;;5006445;28;20744;-74
2022/04/06 10:53:18;;;;;;;10.02;6.68;;;;;;;;;;5009632;28;20661;-72
2022/04/06 10:56:06;;;;;;;12.18;6.50;;;;;;;;;;5003068;28;20524;-74
2022/04/06 10:58:50;;;;;;;12.32;7.03;;;;;;;;;;5005778;28;20116;-75
2022/04/06 11:01:18;;;;;;;14.90;6.47;;;;;;;;;;5005362;28;20052;-75
2022/04/06 11:03:55;;;;;;;10.88;6.70;;;;;;;;;;5011312;28;20031;-76
2022/04/06 11:06:40;;;;;;;13.68;6.78;;;;;;;;;;5015986;28;20028;-76
2022/04/06 11:12:10;;;;;;;8.20;5.85;;;;;;;;;;5008460;28;20045;-76
2022/04/06 11:14:36;;;;;;;14.20;6.97;;;;;;;;;;5006575;28;20022;-76
2022/04/06 11:17:22;;;;;;;12.18;6.47;;;;;;;;;;5008671;28;20500;-76
2022/04/06 11:19:51;;;;;;;12.65;6.65;;;;;;;;;;5004801;28;20543;-75
2022/04/06 11:22:17;;;;;;;11.52;6.40;;;;;;;;;;5004256;28;20037;-75
2022/04/06 11:24:43;;;;;;;16.73;6.28;;;;;;;;;;5005011;28;20033;-75
2022/04/06 11:27:09;;;;;;;12.70;6.32;;;;;;;;;;5005871;28;20042;-75
2022/04/06 11:29:36;;;;;;;10.23;6.07;;;;;;;;;;5016837;28;20036;-76
2022/04/06 11:32:04;;;;;;;15.10;7.32;;;;;;;;;;5010238;28;20032;-76
2022/04/06 11:34:30;;;;;;;12.88;6.25;;;;;;;;;;5013709;28;20034;-77
2022/04/06 11:36:59;;;;;;;14.05;7.28;;;;;;;;;;5006728;28;20028;-75
2022/04/06 11:39:25;;;;;;;15.00;7.43;;;;;;;;;;5011233;28;20459;-76
2022/04/06 11:41:51;;;;;;;16.42;7.47;;;;;;;;;;5010090;28;20026;-75
2022/04/06 11:44:18;;;;;;;12.15;7.47;;;;;;;;;;5013108;28;20625;-75
2022/04/06 11:46:46;;;;;;;13.57;7.43;;;;;;;;;;5011265;28;20489;-75
2022/04/06 11:49:12;;;;;;;12.25;6.57;;;;;;;;;;5008011;28;20072;-75
2022/04/06 11:51:39;;;;;;;12.85;6.82;;;;;;;;;;5011826;28;20030;-75
2022/04/06 11:54:05;;;;;;;12.13;7.28;;;;;;;;;;5003959;28;20025;-75
2022/04/06 11:56:31;;;;;;;12.57;7.50;;;;;;;;;;5008140;28;20106;-76
2022/04/06 11:58:57;;;;;;;17.63;8.05;;;;;;;;;;5007935;28;20026;-75
2022/04/06 12:01:28;;;;;;;14.13;8.85;;;;;;;;;;5009380;28;20037;-75
2022/04/06 12:03:58;;;;;;;14.48;8.48;;;;;;;;;;5009719;28;20049;-75
2022/04/06 12:06:31;;;;;;;14.23;8.10;;;;;;;;;;5007382;28;20037;-75
2022/04/06 12:08:57;;;;;;;13.95;7.30;;;;;;;;;;5013729;28;20054;-75
2022/04/06 12:11:23;;;;;;;13.50;7.43;;;;;;;;;;5010493;28;20334;-75
2022/04/06 12:13:49;;;;;;;15.48;7.90;;;;;;;;;;5010763;28;20030;-75
2022/04/06 12:16:15;;;;;;;12.57;6.93;;;;;;;;;;5006518;28;20057;-75
2022/04/06 12:18:41;;;;;;;13.68;6.72;;;;;;;;;;5013322;28;20441;-75
2022/04/06 12:21:21;;;;;;;16.38;7.00;;;;;;;;;;5007414;28;20060;-76
2022/04/06 12:23:48;;;;;;;14.35;7.75;;;;;;;;;;5007930;28;20117;-74
2022/04/06 12:26:15;;;;;;;14.95;7.10;;;;;;;;;;5008767;28;20026;-72
2022/04/06 12:28:41;;;;;;;17.02;6.75;;;;;;;;;;5007368;28;20026;-72
2022/04/06 12:31:08;;;;;;;11.70;6.78;;;;;;;;;;5012058;28;20477;-72
2022/04/06 12:33:34;;;;;;;14.85;6.95;;;;;;;;;;5023427;28;20026;-73
2022/04/06 12:36:14;;;;;;;14.30;7.15;;;;;;;;;;5010913;28;20691;-74
2022/04/06 12:38:41;;;;;;;13.77;6.25;;;;;;;;;;5001634;28;20030;-74
2022/04/06 12:41:11;;;;;;;13.13;7.03;;;;;;;;;;5008552;28;20520;-74
2022/04/06 12:43:46;;;;;;;9.88;6.13;;;;;;;;;;5005930;28;20026;-74
2022/04/06 12:46:13;;;;;;;13.85;7.22;;;;;;;;;;5006420;28;20085;-72
2022/04/06 12:48:39;;;;;;;17.08;6.00;;;;;;;;;;5010570;28;20033;-74
2022/04/06 12:51:25;;;;;;;13.93;6.88;;;;;;;;;;5011975;28;20022;-73
2022/04/06 12:53:51;;;;;;;12.82;6.22;;;;;;;;;;5002102;28;20485;-74
2022/04/06 12:56:24;;;;;;;11.60;6.10;;;;;;;;;;5002501;28;20072;-74
2022/04/06 12:59:09;;;;;;;10.65;6.25;;;;;;;;;;5003592;28;20041;-73
2022/04/06 13:02:04;;;;;;;13.15;5.88;;;;;;;;;;5003298;28;20170;-78
2022/04/06 13:04:31;;;;;;;13.45;5.40;;;;;;;;;;5009216;28;20543;-80
2022/04/06 13:06:57;;;;;;;8.98;5.30;;;;;;;;;;5001669;28;20037;-80
2022/04/06 13:09:23;;;;;;;10.75;5.55;;;;;;;;;;5006532;28;20021;-76
2022/04/06 13:11:49;;;;;;;11.38;5.70;;;;;;;;;;5009847;28;20116;-80
2022/04/06 13:14:15;;;;;;;8.57;5.15;;;;;;;;;;5011510;28;20018;-77
2022/04/06 13:16:41;;;;;;;10.38;5.55;;;;;;;;;;5009962;28;20520;-78
2022/04/06 13:19:07;;;;;;;11.48;5.25;;;;;;;;;;5009640;28;20033;-82
2022/04/06 13:21:37;;;;;;;10.63;5.28;;;;;;;;;;5006990;28;20759;-81
2022/04/06 13:24:06;;;;;;;8.63;5.38;;;;;;;;;;5007705;28;20053;-82
2022/04/06 13:26:32;;;;;;;7.20;5.18;;;;;;;;;;5009186;28;20473;-81
2022/04/06 13:28:58;;;;;;;10.45;5.20;;;;;;;;;;5010184;28;20052;-80
2022/04/06 13:31:24;;;;;;;11.55;5.38;;;;;;;;;;5014017;28;20025;-79
2022/04/06 13:33:49;;;;;;;8.30;5.30;;;;;;;;;;5010522;28;20518;-81
2022/04/06 13:36:16;;;;;;;7.93;4.72;;;;;;;;;;5011390;28;20381;-81
2022/04/06 13:38:42;;;;;;;13.30;5.63;;;;;;;;;;5016256;28;20022;-82
2022/04/06 13:41:08;;;;;;;6.80;4.40;;;;;;;;;;5006023;28;20044;-82
2022/04/06 13:43:34;;;;;;;9.40;4.68;;;;;;;;;;5016926;28;20401;-81
2022/04/06 13:46:00;;;;;;;7.47;4.45;;;;;;;;;;5009053;28;20488;-80
2022/04/06 13:48:26;;;;;;;9.50;4.35;;;;;;;;;;5006200;28;20072;-82
2022/04/06 13:50:52;;;;;;;9.20;4.63;;;;;;;;;;5005826;28;20030;-74
2022/04/06 13:53:18;;;;;;;9.48;4.40;;;;;;;;;;5006688;28;20022;-76
2022/04/06 13:55:44;;;;;;;8.48;4.35;;;;;;;;;;5005479;28;20110;-73
2022/04/06 13:58:11;;;;;;;5.93;3.90;;;;;;;;;;5007335;28;20191;-74
2022/04/06 14:00:37;;;;;;;9.65;4.18;;;;;;;;;;5015101;28;20037;-74
2022/04/06 14:03:03;;;;;;;6.97;3.97;;;;;;;;;;5009774;28;20233;-75
2022/04/06 14:05:31;;;;;;;11.25;4.03;;;;;;;;;;5025710;28;20113;-75
2022/04/06 14:07:58;;;;;;;9.25;3.97;;;;;;;;;;5018464;28;20050;-74
2022/04/06 14:10:24;;;;;;;8.05;4.40;;;;;;;;;;5012493;28;20041;-73
2022/04/06 14:12:50;;;;;;;9.27;4.05;;;;;;;;;;5009937;28;20034;-77
2022/04/06 14:15:16;;;;;;;11.77;4.82;;;;;;;;;;5008656;28;20017;-79
2022/04/06 14:17:42;;;;;;;8.40;4.35;;;;;;;;;;5008988;28;20481;-78
2022/04/06 14:20:09;;;;;;;7.72;4.28;;;;;;;;;;5009967;28;20040;-85
2022/04/06 14:22:35;;;;;;;9.52;4.70;;;;;;;;;;5011083;28;20030;-75
2022/04/06 14:27:56;;;;;;;8.48;4.53;;;;;;;;;;5000851;28;20039;-79
2022/04/06 14:30:22;;;;;;;10.95;4.35;;;;;;;;;;5018800;28;20432;-77
2022/04/06 14:32:49;;;;;;;12.90;4.80;;;;;;;;;;5007397;28;20034;-80
2022/04/06 14:35:17;;;;;;;9.70;4.60;;;;;;;;;;5003702;28;20037;-76
2022/04/06 14:37:43;;;;;;;9.63;4.68;;;;;;;;;;5011069;28;20148;-77